createdAt,value
2024-03-12T00:01:28.013Z,10.01
2024-03-12T00:03:56.574Z,9.89
2024-03-12T00:06:24.091Z,9.78
2024-03-12T00:08:50.878Z,9.77
2024-03-12T00:11:17.759Z,9.81
2024-03-12T00:13:44.553Z,9.86
2024-03-12T00:16:11.626Z,10.01
2024-03-12T00:18:40.863Z,9.99
2024-03-12T00:21:09.097Z,9.95
2024-03-12T00:23:35.922Z,9.98
2024-03-12T00:26:04.398Z,9.97
2024-03-12T00:28:32.881Z,9.85
2024-03-12T00:31:00.826Z,9.91
2024-03-12T00:33:27.676Z,9.83
2024-03-12T00:35:54.431Z,9.90
2024-03-12T00:38:21.199Z,10.08
2024-03-12T00:40:49.575Z,10.07
2024-03-12T00:43:16.512Z,10.02
2024-03-12T00:45:43.558Z,9.93
2024-03-12T00:48:16.380Z,9.90
2024-03-12T00:50:47.592Z,10.07
2024-03-12T00:53:15.512Z,10.17
2024-03-12T00:55:42.634Z,10.34
2024-03-12T00:58:12.213Z,10.26
2024-03-12T01:00:41.645Z,10.16
2024-03-12T01:03:13.476Z,10.15
2024-03-12T01:05:40.930Z,10.25
2024-03-12T01:08:09.445Z,10.36
2024-03-12T01:10:36.587Z,10.20
2024-03-12T01:13:11.320Z,10.23
2024-03-12T01:15:40.278Z,10.30
2024-03-12T01:18:09.933Z,10.18
2024-03-12T01:20:37.230Z,10.05
2024-03-12T01:23:07.283Z,9.99
2024-03-12T01:25:37.578Z,10.02
2024-03-12T01:28:08.027Z,10.14
2024-03-12T01:30:35.945Z,10.30
2024-03-12T01:33:04.188Z,10.38
2024-03-12T01:35:32.100Z,10.31
2024-03-12T01:37:59.399Z,10.45
2024-03-12T01:40:31.791Z,10.24
2024-03-12T01:43:04.081Z,10.11
2024-03-12T01:45:33.478Z,10.10
2024-03-12T01:48:05.235Z,10.14
2024-03-12T01:50:32.924Z,10.08
2024-03-12T01:53:07.673Z,10.15
2024-03-12T01:55:38.893Z,10.29
2024-03-12T01:58:05.898Z,10.21
2024-03-12T02:00:34.941Z,10.11
2024-03-12T02:03:02.230Z,10.10
2024-03-12T02:05:29.133Z,10.02
2024-03-12T02:07:56.357Z,10.01
2024-03-12T02:10:23.558Z,9.96
2024-03-12T02:12:50.588Z,10.13
2024-03-12T02:15:25.213Z,10.31
2024-03-12T02:17:55.122Z,10.42
2024-03-12T02:20:23.367Z,10.37
2024-03-12T02:22:57.243Z,10.39
2024-03-12T02:25:24.694Z,10.42
2024-03-12T02:27:52.316Z,10.45
2024-03-12T02:30:19.790Z,10.36
2024-03-12T02:32:50.093Z,10.34
2024-03-12T02:35:17.734Z,10.17
2024-03-12T02:37:45.152Z,10.19
2024-03-12T02:40:16.493Z,10.26
2024-03-12T02:42:44.288Z,10.37
2024-03-12T02:45:22.495Z,10.18
2024-03-12T02:47:49.456Z,10.21
2024-03-12T02:50:19.677Z,10.22
2024-03-12T02:52:47.057Z,10.31
2024-03-12T02:55:14.143Z,10.33
2024-03-12T02:57:41.103Z,10.36
2024-03-12T03:00:15.570Z,10.34
2024-03-12T03:02:43.810Z,10.29
2024-03-12T03:05:11.800Z,10.18
2024-03-12T03:07:41.621Z,10.25
2024-03-12T03:10:09.062Z,10.24
2024-03-12T03:12:36.012Z,10.36
2024-03-12T03:15:02.975Z,10.43
2024-03-12T03:17:29.667Z,10.39
2024-03-12T03:19:56.438Z,10.42
2024-03-12T03:22:23.251Z,10.48
2024-03-12T03:24:49.918Z,10.19
2024-03-12T03:27:16.674Z,10.02
2024-03-12T03:29:44.252Z,9.86
2024-03-12T03:32:10.967Z,9.95
2024-03-12T03:34:38.698Z,10.14
2024-03-12T03:37:05.924Z,10.22
2024-03-12T03:39:36.421Z,10.33
2024-03-12T03:42:03.645Z,10.22
2024-03-12T03:44:30.873Z,10.25
2024-03-12T03:46:57.590Z,10.21
2024-03-12T03:49:24.264Z,10.09
2024-03-12T03:51:52.385Z,10.14
2024-03-12T03:54:19.130Z,10.16
2024-03-12T03:56:46.412Z,10.05
2024-03-12T03:59:17.202Z,9.98
2024-03-12T04:01:44.174Z,9.93
2024-03-12T04:04:14.437Z,9.96
2024-03-12T04:06:45.416Z,9.95
2024-03-12T04:09:12.864Z,9.98
2024-03-12T04:11:39.902Z,9.78
2024-03-12T04:14:06.644Z,9.58
2024-03-12T04:16:33.431Z,9.64
2024-03-12T04:19:03.164Z,9.81
2024-03-12T04:21:29.987Z,9.84
2024-03-12T04:23:56.750Z,9.77
2024-03-12T04:26:23.669Z,9.71
2024-03-12T04:28:50.519Z,9.61
2024-03-12T04:31:22.253Z,9.34
2024-03-12T04:33:49.203Z,9.24
2024-03-12T04:36:15.993Z,9.22
2024-03-12T04:38:42.784Z,9.25
2024-03-12T04:41:10.853Z,9.31
2024-03-12T04:43:38.247Z,9.32
2024-03-12T04:46:05.382Z,9.24
2024-03-12T04:48:32.321Z,9.14
2024-03-12T04:50:59.163Z,9.15
2024-03-12T04:53:26.801Z,9.01
2024-03-12T04:55:53.571Z,9.07
2024-03-12T04:58:20.376Z,9.03
2024-03-12T05:00:47.269Z,8.92
2024-03-12T05:03:14.239Z,8.84
2024-03-12T05:05:41.882Z,8.84
2024-03-12T05:08:09.234Z,8.92
2024-03-12T05:10:37.804Z,9.05
2024-03-12T05:13:04.923Z,9.15
2024-03-12T05:15:32.432Z,9.18
2024-03-12T05:17:59.412Z,9.07
2024-03-12T05:20:26.966Z,9.04
2024-03-12T05:22:55.200Z,8.94
2024-03-12T05:25:25.728Z,8.84
2024-03-12T05:27:52.888Z,8.83
2024-03-12T05:30:22.185Z,8.86
2024-03-12T05:32:50.155Z,9.06
2024-03-12T05:35:26.677Z,9.18
2024-03-12T05:38:12.993Z,9.12
2024-03-12T05:40:58.829Z,8.98
2024-03-12T05:43:44.445Z,9.00
2024-03-12T05:46:29.949Z,8.98
2024-03-12T05:48:56.758Z,9.00
2024-03-12T05:51:23.495Z,9.05
2024-03-12T05:53:50.359Z,9.13
2024-03-12T05:56:19.821Z,9.26
2024-03-12T05:58:47.492Z,9.30
2024-03-12T06:01:14.759Z,9.25
2024-03-12T06:03:41.912Z,9.07
2024-03-12T06:06:09.309Z,9.07
2024-03-12T06:08:36.706Z,9.20
2024-03-12T06:11:03.901Z,9.09
2024-03-12T06:13:30.747Z,9.19
2024-03-12T06:15:58.630Z,9.16
2024-03-12T06:18:27.199Z,9.20
2024-03-12T06:20:54.047Z,9.01
2024-03-12T06:23:22.556Z,9.17
2024-03-12T06:25:49.291Z,9.21
2024-03-12T06:28:16.642Z,9.13
2024-03-12T06:30:44.647Z,9.16
2024-03-12T06:33:13.567Z,9.23
2024-03-12T06:35:41.436Z,9.28
2024-03-12T06:38:08.676Z,9.16
2024-03-12T06:40:35.853Z,9.36
2024-03-12T06:43:02.668Z,9.52
2024-03-12T06:45:29.658Z,9.62
2024-03-12T06:47:57.349Z,9.73
2024-03-12T06:50:27.793Z,9.70
2024-03-12T06:52:55.941Z,9.79
2024-03-12T06:55:26.082Z,9.81
2024-03-12T06:57:56.556Z,9.87
2024-03-12T07:00:39.246Z,9.88
2024-03-12T07:03:06.328Z,9.79
2024-03-12T07:05:38.463Z,9.61
2024-03-12T07:08:10.867Z,9.65
2024-03-12T07:10:41.914Z,9.61
2024-03-12T07:13:09.413Z,9.52
2024-03-12T07:15:37.572Z,9.44
2024-03-12T07:18:05.169Z,9.60
2024-03-12T07:20:32.634Z,9.83
2024-03-12T07:23:00.152Z,10.02
2024-03-12T07:25:27.166Z,10.16
2024-03-12T07:27:54.688Z,10.26
2024-03-12T07:30:23.482Z,10.00
2024-03-12T07:32:50.294Z,9.99
2024-03-12T07:35:18.626Z,9.99
2024-03-12T07:37:47.350Z,9.92
2024-03-12T07:40:17.455Z,9.99
2024-03-12T07:42:45.653Z,9.95
2024-03-12T07:45:14.436Z,10.07
2024-03-12T07:47:41.284Z,10.09
2024-03-12T07:50:09.656Z,10.05
2024-03-12T07:52:37.155Z,10.13
2024-03-12T07:55:04.911Z,10.11
2024-03-12T07:57:34.832Z,10.26
2024-03-12T08:00:01.681Z,10.48
2024-03-12T08:02:28.507Z,10.64
2024-03-12T08:04:55.232Z,10.76
2024-03-12T08:07:22.059Z,10.61
2024-03-12T08:09:50.269Z,10.47
2024-03-12T08:12:18.400Z,10.51
2024-03-12T08:14:45.733Z,10.61
2024-03-12T08:17:13.845Z,10.44
2024-03-12T08:19:42.070Z,10.55
2024-03-12T08:22:10.146Z,10.74
2024-03-12T08:24:38.741Z,10.89
2024-03-12T08:27:06.834Z,10.82
2024-03-12T08:29:33.882Z,10.62
2024-03-12T08:32:01.586Z,10.64
2024-03-12T08:34:28.687Z,10.72
2024-03-12T08:36:56.917Z,10.76
2024-03-12T08:39:23.992Z,10.71
2024-03-12T08:41:50.742Z,10.82
2024-03-12T08:44:17.958Z,10.78
2024-03-12T08:46:44.743Z,10.74
2024-03-12T08:49:12.774Z,10.67
2024-03-12T08:51:41.260Z,10.63
2024-03-12T08:54:10.434Z,10.67
2024-03-12T08:56:37.521Z,10.62
2024-03-12T08:59:06.647Z,10.70
2024-03-12T09:01:33.616Z,10.87
2024-03-12T09:04:01.026Z,10.92
2024-03-12T09:06:28.041Z,10.88
2024-03-12T09:08:56.252Z,10.96
2024-03-12T09:11:23.005Z,11.10
2024-03-12T09:13:50.057Z,11.15
2024-03-12T09:16:17.647Z,11.24
2024-03-12T09:18:45.070Z,11.37
2024-03-12T09:21:16.540Z,11.17
2024-03-12T09:23:53.451Z,11.16
2024-03-12T09:26:29.607Z,11.20
2024-03-12T09:28:56.710Z,11.15
2024-03-12T09:31:23.666Z,11.34
2024-03-12T09:33:53.766Z,11.48
2024-03-12T09:36:21.912Z,11.39
2024-03-12T09:38:52.162Z,11.50
2024-03-12T09:41:21.969Z,11.63
2024-03-12T09:43:48.809Z,11.64
2024-03-12T09:46:18.024Z,11.58
2024-03-12T09:48:46.975Z,11.61
2024-03-12T09:51:14.429Z,11.77
2024-03-12T09:53:43.587Z,11.90
2024-03-12T09:56:12.193Z,12.05
2024-03-12T09:58:39.826Z,11.92
2024-03-12T10:01:08.072Z,12.10
2024-03-12T10:03:38.471Z,12.35
2024-03-12T10:06:07.878Z,12.36
2024-03-12T10:08:36.178Z,12.26
2024-03-12T10:11:10.116Z,12.16
2024-03-12T10:13:41.801Z,12.32
2024-03-12T10:16:09.849Z,12.25
2024-03-12T10:18:38.864Z,12.19
2024-03-12T10:21:08.513Z,11.96
2024-03-12T10:23:38.006Z,11.63
2024-03-12T10:26:19.672Z,11.49
2024-03-12T10:28:47.159Z,11.62
2024-03-12T10:31:14.945Z,11.66
2024-03-12T10:33:46.940Z,11.87
2024-03-12T10:36:15.080Z,11.76
2024-03-12T10:38:42.141Z,11.63
2024-03-12T10:41:17.992Z,11.60
2024-03-12T10:43:50.873Z,11.58
2024-03-12T10:46:21.100Z,11.44
2024-03-12T10:48:52.115Z,11.64
2024-03-12T10:51:20.762Z,11.54
2024-03-12T10:53:53.221Z,11.72
2024-03-12T10:56:21.220Z,11.88
2024-03-12T10:58:50.140Z,11.71
2024-03-12T11:01:20.038Z,11.54
2024-03-12T11:03:48.422Z,11.69
2024-03-12T11:06:16.028Z,12.04
2024-03-12T11:08:47.476Z,12.00
2024-03-12T11:11:15.347Z,11.67
2024-03-12T11:13:42.739Z,11.58
2024-03-12T11:16:14.997Z,11.43
2024-03-12T11:18:42.348Z,11.30
2024-03-12T11:21:32.923Z,11.44
2024-03-12T11:23:59.790Z,11.43
2024-03-12T11:26:36.418Z,11.51
2024-03-12T11:29:03.516Z,11.77
2024-03-12T11:31:39.863Z,11.89
2024-03-12T11:34:06.754Z,11.93
2024-03-12T11:36:42.344Z,11.77
2024-03-12T11:39:16.820Z,11.45
2024-03-12T11:42:02.209Z,11.07
2024-03-12T11:44:46.014Z,11.21
2024-03-12T11:47:30.264Z,11.46
2024-03-12T11:49:59.561Z,11.53
2024-03-12T11:52:28.769Z,11.52
2024-03-12T11:54:55.590Z,11.74
2024-03-12T11:57:25.878Z,11.86
2024-03-12T11:59:52.696Z,11.93
2024-03-12T12:02:21.977Z,11.87
2024-03-12T12:04:55.881Z,12.04
2024-03-12T12:07:24.263Z,11.86
2024-03-12T12:09:53.136Z,11.77
2024-03-12T12:12:21.280Z,12.06
2024-03-12T12:14:49.529Z,12.38
2024-03-12T12:17:24.182Z,12.52
2024-03-12T12:20:16.499Z,12.58
2024-03-12T12:22:47.756Z,13.07
2024-03-12T12:25:20.193Z,13.84
2024-03-12T12:27:47.708Z,13.87
2024-03-12T12:30:16.439Z,13.60
2024-03-12T12:32:43.630Z,13.57
2024-03-12T12:35:15.435Z,13.51
2024-03-12T12:37:46.224Z,13.79
2024-03-12T12:40:18.601Z,14.43
2024-03-12T12:42:47.236Z,15.69
2024-03-12T12:45:15.381Z,16.28
2024-03-12T12:47:50.607Z,15.93
2024-03-12T12:50:31.413Z,15.02
2024-03-12T12:53:02.836Z,14.98
2024-03-12T12:55:33.384Z,14.97
2024-03-12T12:58:06.105Z,15.75
2024-03-12T13:00:37.880Z,15.78
2024-03-12T13:03:12.883Z,15.41
2024-03-12T13:05:42.810Z,15.67
2024-03-12T13:08:22.344Z,15.39
2024-03-12T13:10:58.681Z,14.86
2024-03-12T13:13:29.111Z,14.86
2024-03-12T13:15:55.970Z,14.72
2024-03-12T13:18:22.789Z,14.12
2024-03-12T13:20:50.724Z,13.63
2024-03-12T13:23:20.475Z,13.37
2024-03-12T13:25:47.313Z,13.15
2024-03-12T13:28:17.195Z,12.89
2024-03-12T13:30:44.383Z,12.95
2024-03-12T13:33:11.234Z,12.86
2024-03-12T13:35:38.094Z,13.02
2024-03-12T13:38:05.657Z,12.98
2024-03-12T13:40:32.723Z,13.03
2024-03-12T13:42:59.480Z,13.00
2024-03-12T13:45:26.221Z,12.98
2024-03-12T13:47:53.547Z,12.89
2024-03-12T13:50:20.380Z,13.04
2024-03-12T13:52:48.467Z,12.77
2024-03-12T13:55:15.290Z,12.78
2024-03-12T13:57:42.939Z,12.79
2024-03-12T14:00:11.528Z,12.81
2024-03-12T14:02:38.482Z,13.08
2024-03-12T14:05:06.198Z,13.16
2024-03-12T14:07:33.665Z,12.77
2024-03-12T14:10:00.679Z,12.46
2024-03-12T14:12:27.489Z,12.81
2024-03-12T14:14:54.138Z,12.89
2024-03-12T14:17:21.638Z,13.14
2024-03-12T14:19:48.433Z,12.89
2024-03-12T14:22:15.170Z,13.04
2024-03-12T14:24:41.948Z,13.30
2024-03-12T14:27:08.706Z,13.59
2024-03-12T14:29:35.509Z,13.58
2024-03-12T14:32:02.266Z,13.67
2024-03-12T14:34:29.879Z,13.58
2024-03-12T14:36:56.783Z,13.57
2024-03-12T14:39:24.401Z,13.60
2024-03-12T14:41:52.190Z,13.62
2024-03-12T14:44:18.964Z,13.65
2024-03-12T14:46:48.443Z,13.70
2024-03-12T14:49:15.253Z,13.75
2024-03-12T14:51:42.556Z,13.72
2024-03-12T14:54:09.594Z,13.70
2024-03-12T14:56:36.388Z,13.28
2024-03-12T14:59:07.144Z,12.96
2024-03-12T15:01:34.091Z,12.96
2024-03-12T15:04:02.812Z,13.24
2024-03-12T15:06:29.536Z,13.31
2024-03-12T15:08:57.173Z,13.31
2024-03-12T15:11:24.121Z,13.31
2024-03-12T15:13:51.150Z,13.32
2024-03-12T15:16:21.991Z,13.36
2024-03-12T15:18:49.726Z,13.42
2024-03-12T15:21:19.320Z,13.39
2024-03-12T15:23:46.203Z,13.36
2024-03-12T15:26:13.056Z,13.39
2024-03-12T15:28:39.739Z,13.25
2024-03-12T15:31:06.528Z,13.18
2024-03-12T15:33:34.505Z,13.14
2024-03-12T15:36:01.448Z,13.22
2024-03-12T15:38:28.854Z,13.39
2024-03-12T15:40:55.992Z,13.42
2024-03-12T15:43:22.986Z,13.32
2024-03-12T15:45:49.790Z,13.39
2024-03-12T15:48:16.657Z,13.04
2024-03-12T15:50:45.021Z,12.70
2024-03-12T15:53:13.073Z,12.86
2024-03-12T15:55:41.495Z,12.88
2024-03-12T15:58:08.454Z,13.02
2024-03-12T16:00:35.680Z,12.82
2024-03-12T16:03:02.522Z,12.98
2024-03-12T16:05:30.462Z,13.04
2024-03-12T16:07:58.158Z,13.08
2024-03-12T16:10:25.864Z,13.08
2024-03-12T16:12:52.613Z,13.05
2024-03-12T16:15:19.481Z,12.76
2024-03-12T16:17:46.311Z,12.60
2024-03-12T16:20:16.571Z,12.55
2024-03-12T16:22:43.590Z,12.44
2024-03-12T16:25:10.731Z,12.18
2024-03-12T16:27:38.221Z,12.16
2024-03-12T16:30:05.798Z,12.27
2024-03-12T16:32:33.751Z,12.28
2024-03-12T16:35:00.959Z,12.38
2024-03-12T16:37:27.858Z,12.38
2024-03-12T16:39:55.644Z,12.26
2024-03-12T16:42:22.532Z,12.17
2024-03-12T16:44:51.404Z,11.97
2024-03-12T16:47:18.187Z,12.02
2024-03-12T16:49:46.729Z,11.76
2024-03-12T16:52:13.500Z,11.75
2024-03-12T16:54:40.606Z,11.78
2024-03-12T16:57:09.097Z,11.87
2024-03-12T16:59:36.182Z,11.80
2024-03-12T17:02:05.931Z,11.96
2024-03-12T17:04:33.067Z,12.06
2024-03-12T17:07:05.520Z,12.14
2024-03-12T17:09:33.030Z,12.27
2024-03-12T17:12:00.028Z,12.24
2024-03-12T17:14:30.960Z,12.11
2024-03-12T17:17:07.333Z,12.11
2024-03-12T17:19:35.746Z,12.11
2024-03-12T17:22:03.742Z,12.29
2024-03-12T17:24:32.124Z,12.28
2024-03-12T17:26:59.060Z,12.25
2024-03-12T17:29:26.941Z,12.22
2024-03-12T17:31:56.830Z,12.30
2024-03-12T17:34:23.806Z,12.37
2024-03-12T17:36:54.811Z,12.46
2024-03-12T17:39:22.348Z,12.53
2024-03-12T17:41:49.438Z,12.60
2024-03-12T17:44:18.036Z,12.61
2024-03-12T17:46:45.241Z,12.32
2024-03-12T17:49:18.224Z,12.25
2024-03-12T17:51:48.006Z,12.28
2024-03-12T17:54:17.760Z,12.27
2024-03-12T17:56:48.446Z,12.28
2024-03-12T17:59:18.255Z,12.15
2024-03-12T18:01:46.083Z,12.08
2024-03-12T18:04:14.348Z,12.07
2024-03-12T18:06:47.556Z,12.13
2024-03-12T18:09:21.489Z,12.02
2024-03-12T18:11:48.428Z,12.06
2024-03-12T18:14:16.017Z,12.07
2024-03-12T18:16:42.694Z,12.19
2024-03-12T18:19:09.559Z,12.18
2024-03-12T18:21:38.249Z,12.19
2024-03-12T18:24:05.880Z,12.18
2024-03-12T18:26:35.895Z,12.22
2024-03-12T18:29:04.527Z,12.26
2024-03-12T18:31:31.516Z,12.26
2024-03-12T18:33:58.325Z,12.01
2024-03-12T18:36:25.762Z,11.95
2024-03-12T18:38:52.536Z,12.00
2024-03-12T18:41:19.274Z,11.97
2024-03-12T18:43:45.959Z,12.09
2024-03-12T18:46:12.739Z,12.15
2024-03-12T18:48:39.862Z,12.13
2024-03-12T18:51:07.270Z,12.14
2024-03-12T18:53:35.654Z,12.00
2024-03-12T18:56:04.124Z,11.94
2024-03-12T18:58:31.092Z,11.81
2024-03-12T19:00:58.440Z,11.82
2024-03-12T19:03:32.101Z,11.69
2024-03-12T19:06:02.452Z,11.73
2024-03-12T19:08:31.726Z,11.76
2024-03-12T19:10:59.774Z,11.59
2024-03-12T19:13:27.167Z,11.37
2024-03-12T19:15:54.075Z,11.51
2024-03-12T19:18:24.135Z,11.54
2024-03-12T19:20:56.152Z,11.54
2024-03-12T19:23:25.070Z,11.58
2024-03-12T19:25:51.939Z,11.72
2024-03-12T19:28:18.727Z,11.84
2024-03-12T19:30:45.701Z,11.81
2024-03-12T19:33:14.879Z,11.85
2024-03-12T19:35:41.994Z,11.90
2024-03-12T19:38:10.577Z,11.92
2024-03-12T19:40:37.422Z,11.64
2024-03-12T19:43:04.632Z,11.64
2024-03-12T19:45:32.253Z,11.72
2024-03-12T19:47:59.117Z,11.72
2024-03-12T19:50:26.324Z,11.71
2024-03-12T19:52:54.477Z,11.77
2024-03-12T19:55:31.768Z,11.80
2024-03-12T19:58:01.901Z,11.79
2024-03-12T20:00:32.090Z,11.76
2024-03-12T20:03:00.893Z,11.72
2024-03-12T20:05:28.857Z,11.58
2024-03-12T20:08:06.141Z,11.32
2024-03-12T20:10:35.872Z,11.10
2024-03-12T20:13:06.063Z,11.15
2024-03-12T20:15:33.827Z,11.31
2024-03-12T20:18:02.519Z,11.49
2024-03-12T20:20:29.507Z,11.35
2024-03-12T20:22:56.979Z,11.30
2024-03-12T20:25:23.936Z,11.22
2024-03-12T20:27:55.052Z,11.40
2024-03-12T20:30:28.575Z,11.61
2024-03-12T20:33:00.242Z,11.58
2024-03-12T20:35:29.267Z,11.45
2024-03-12T20:37:56.910Z,11.38
2024-03-12T20:40:26.501Z,11.32
2024-03-12T20:42:54.041Z,11.35
2024-03-12T20:45:22.894Z,11.34
2024-03-12T20:47:50.218Z,11.36
2024-03-12T20:50:21.013Z,11.28
2024-03-12T20:52:48.491Z,11.27
2024-03-12T20:55:15.860Z,11.32
2024-03-12T20:57:48.530Z,11.33
2024-03-12T21:00:33.480Z,11.35
2024-03-12T21:03:00.265Z,11.28
2024-03-12T21:05:31.852Z,11.26
2024-03-12T21:07:58.712Z,11.07
2024-03-12T21:10:25.577Z,11.16
2024-03-12T21:12:53.076Z,11.16
2024-03-12T21:15:20.295Z,11.07
2024-03-12T21:17:47.269Z,11.07
2024-03-12T21:20:19.728Z,11.10
2024-03-12T21:22:46.637Z,10.95
2024-03-12T21:25:13.529Z,10.80
2024-03-12T21:27:40.517Z,10.84
2024-03-12T21:30:15.535Z,10.91
2024-03-12T21:32:42.668Z,10.98
2024-03-12T21:35:10.552Z,10.86
2024-03-12T21:37:39.649Z,10.77
2024-03-12T21:40:12.862Z,10.87
2024-03-12T21:42:40.387Z,10.88
2024-03-12T21:45:07.699Z,10.78
2024-03-12T21:47:38.152Z,10.56
2024-03-12T21:50:15.351Z,10.57
2024-03-12T21:52:42.744Z,10.61
2024-03-12T21:55:11.779Z,10.62
2024-03-12T21:57:40.190Z,10.68
2024-03-12T22:00:20.497Z,10.75
2024-03-12T22:02:48.072Z,10.81
2024-03-12T22:05:17.168Z,10.82
2024-03-12T22:07:45.015Z,10.77
2024-03-12T22:10:13.645Z,10.78
2024-03-12T22:12:42.052Z,10.84
2024-03-12T22:15:13.030Z,10.86
2024-03-12T22:17:40.206Z,10.89
2024-03-12T22:20:07.225Z,10.94
2024-03-12T22:22:34.370Z,10.96
2024-03-12T22:25:01.211Z,10.79
2024-03-12T22:27:29.732Z,10.87
2024-03-12T22:29:56.596Z,10.84
2024-03-12T22:32:27.471Z,10.84
2024-03-12T22:34:56.014Z,10.82
2024-03-12T22:37:23.243Z,10.78
2024-03-12T22:39:50.323Z,10.84
2024-03-12T22:42:18.932Z,10.77
2024-03-12T22:44:45.714Z,10.62
2024-03-12T22:47:12.817Z,10.74
2024-03-12T22:49:44.477Z,10.74
2024-03-12T22:52:13.035Z,10.71
2024-03-12T22:54:40.396Z,10.66
2024-03-12T22:57:08.431Z,10.73
2024-03-12T22:59:35.585Z,10.73
2024-03-12T23:02:04.334Z,10.76
2024-03-12T23:04:31.369Z,10.61
2024-03-12T23:06:59.041Z,10.66
2024-03-12T23:09:27.160Z,10.77
2024-03-12T23:11:56.757Z,10.57
2024-03-12T23:14:25.381Z,10.67
2024-03-12T23:16:52.343Z,10.63
2024-03-12T23:19:19.874Z,10.76
2024-03-12T23:21:47.358Z,10.63
2024-03-12T23:24:15.139Z,10.66
2024-03-12T23:26:43.687Z,10.73
2024-03-12T23:29:11.473Z,10.58
2024-03-12T23:31:38.686Z,10.51
2024-03-12T23:34:07.217Z,10.60
2024-03-12T23:36:34.722Z,10.68
2024-03-12T23:39:01.517Z,10.64
2024-03-12T23:41:31.325Z,10.58
2024-03-12T23:43:58.318Z,10.61
2024-03-12T23:46:26.338Z,10.64
2024-03-12T23:48:53.560Z,10.63
2024-03-12T23:51:20.340Z,10.67
2024-03-12T23:53:47.522Z,10.71
2024-03-12T23:56:14.263Z,10.69
2024-03-12T23:58:40.938Z,10.62
